Prole, Iowa
Current Conditions -  °F | °C
As of 3:54 PM on Friday 28 Nov 2014 (Local Time) from KDSM Reporting Station
Scattered Clouds Scattered Clouds  
Wind Chill: 40°   Ceiling: Unl
Heat Index: 44°   Visibility: 10mi
Dew Point: 30°   Wind: 8mph
Humidity: 58%   Direction: 140°SE
Pressure: 29.78"   Gusts: NA
Location:  41.41°N, 93.73°W
Report Text: KDSM 282154Z 14007KT 10SM FEW160 SCT260 07/M01 A2978 RMK AO2 SLP093 T00671011
Loading
Personal Weather Stations






























Interactive Weather Map New forecast layout! Learn more

10-Day Weather Forecast

Advertisements
Track Severe Weather on mobile